sensor_id;sensor_type;location;lat;lon;timestamp;temperature;humidity
7192;DHT22;3637;51.494;11.958;2023-11-21T00:00:42;7.40;99.90
7192;DHT22;3637;51.494;11.958;2023-11-21T00:03:44;7.20;99.90
7192;DHT22;3637;51.494;11.958;2023-11-21T00:06:47;7.20;99.90
7192;DHT22;3637;51.494;11.958;2023-11-21T00:09:49;7.20;99.90
7192;DHT22;3637;51.494;11.958;2023-11-21T00:12:56;7.20;99.90
7192;DHT22;3637;51.494;11.958;2023-11-21T00:15:58;7.20;99.90
7192;DHT22;3637;51.494;11.958;2023-11-21T00:19:00;7.10;99.90
7192;DHT22;3637;51.494;11.958;2023-11-21T00:22:03;7.10;99.90
7192;DHT22;3637;51.494;11.958;2023-11-21T00:25:07;7.10;99.90
7192;DHT22;3637;51.494;11.958;2023-11-21T00:28:09;7.10;99.90
7192;DHT22;3637;51.494;11.958;2023-11-21T00:31:11;7.00;99.90
7192;DHT22;3637;51.494;11.958;2023-11-21T00:34:14;7.00;99.90
7192;DHT22;3637;51.494;11.958;2023-11-21T00:37:17;7.10;99.90
7192;DHT22;3637;51.494;11.958;2023-11-21T00:40:19;7.00;99.90
7192;DHT22;3637;51.494;11.958;2023-11-21T00:43:21;7.20;99.90
7192;DHT22;3637;51.494;11.958;2023-11-21T00:46:23;7.00;99.90
7192;DHT22;3637;51.494;11.958;2023-11-21T00:49:27;8.10;99.90
7192;DHT22;3637;51.494;11.958;2023-11-21T00:52:30;7.20;99.90
7192;DHT22;3637;51.494;11.958;2023-11-21T00:55:32;7.10;99.90
7192;DHT22;3637;51.494;11.958;2023-11-21T00:58:35;6.90;99.90
7192;DHT22;3637;51.494;11.958;2023-11-21T01:01:37;6.90;99.90
7192;DHT22;3637;51.494;11.958;2023-11-21T01:04:39;6.90;99.90
7192;DHT22;3637;51.494;11.958;2023-11-21T01:07:43;6.90;99.90
7192;DHT22;3637;51.494;11.958;2023-11-21T01:10:45;6.80;99.90
7192;DHT22;3637;51.494;11.958;2023-11-21T01:13:47;6.80;99.90
7192;DHT22;3637;51.494;11.958;2023-11-21T01:16:48;6.50;99.90
7192;DHT22;3637;51.494;11.958;2023-11-21T01:19:50;6.60;99.90
7192;DHT22;3637;51.494;11.958;2023-11-21T01:22:53;7.10;99.90
7192;DHT22;3637;51.494;11.958;2023-11-21T01:25:56;6.90;99.90
7192;DHT22;3637;51.494;11.958;2023-11-21T01:28:58;6.90;99.90
7192;DHT22;3637;51.494;11.958;2023-11-21T01:32:00;6.80;99.90
7192;DHT22;3637;51.494;11.958;2023-11-21T01:35:02;6.60;99.90
7192;DHT22;3637;51.494;11.958;2023-11-21T01:38:08;6.70;99.90
7192;DHT22;3637;51.494;11.958;2023-11-21T01:41:09;6.80;99.90
7192;DHT22;3637;51.494;11.958;2023-11-21T01:44:13;6.60;99.90
7192;DHT22;3637;51.494;11.958;2023-11-21T01:47:16;6.90;99.90
7192;DHT22;3637;51.494;11.958;2023-11-21T01:50:18;6.60;99.90
7192;DHT22;3637;51.494;11.958;2023-11-21T01:53:23;7.00;99.90
7192;DHT22;3637;51.494;11.958;2023-11-21T01:56:25;6.70;99.90
7192;DHT22;3637;51.494;11.958;2023-11-21T01:59:29;6.90;99.90
7192;DHT22;3637;51.494;11.958;2023-11-21T02:02:35;6.80;99.90
7192;DHT22;3637;51.494;11.958;2023-11-21T02:05:37;6.80;99.90
7192;DHT22;3637;51.494;11.958;2023-11-21T02:08:40;6.80;99.90
7192;DHT22;3637;51.494;11.958;2023-11-21T02:11:44;7.30;99.90
7192;DHT22;3637;51.494;11.958;2023-11-21T02:14:46;7.00;99.90
7192;DHT22;3637;51.494;11.958;2023-11-21T02:17:50;6.90;99.90
7192;DHT22;3637;51.494;11.958;2023-11-21T02:20:53;7.10;99.90
7192;DHT22;3637;51.494;11.958;2023-11-21T02:23:56;7.30;99.90
7192;DHT22;3637;51.494;11.958;2023-11-21T02:26:59;7.20;99.90
7192;DHT22;3637;51.494;11.958;2023-11-21T02:30:01;7.20;99.90
7192;DHT22;3637;51.494;11.958;2023-11-21T02:33:04;7.40;99.90
7192;DHT22;3637;51.494;11.958;2023-11-21T02:36:08;7.30;99.90
7192;DHT22;3637;51.494;11.958;2023-11-21T02:39:11;7.30;99.90
7192;DHT22;3637;51.494;11.958;2023-11-21T02:42:13;8.00;99.90
7192;DHT22;3637;51.494;11.958;2023-11-21T02:45:15;7.40;99.90
7192;DHT22;3637;51.494;11.958;2023-11-21T02:48:18;7.40;99.90
7192;DHT22;3637;51.494;11.958;2023-11-21T02:51:20;7.70;99.90
7192;DHT22;3637;51.494;11.958;2023-11-21T02:54:23;7.40;99.90
7192;DHT22;3637;51.494;11.958;2023-11-21T02:57:25;7.40;99.90
7192;DHT22;3637;51.494;11.958;2023-11-21T03:00:27;7.40;99.90
7192;DHT22;3637;51.494;11.958;2023-11-21T03:03:29;7.40;99.90
7192;DHT22;3637;51.494;11.958;2023-11-21T03:06:31;7.40;99.90
7192;DHT22;3637;51.494;11.958;2023-11-21T03:09:34;7.40;99.90
7192;DHT22;3637;51.494;11.958;2023-11-21T03:12:36;7.40;99.90
7192;DHT22;3637;51.494;11.958;2023-11-21T03:15:38;7.30;99.90
7192;DHT22;3637;51.494;11.958;2023-11-21T03:18:40;7.40;99.90
7192;DHT22;3637;51.494;11.958;2023-11-21T03:21:41;7.30;99.90
7192;DHT22;3637;51.494;11.958;2023-11-21T03:24:45;7.90;99.90
7192;DHT22;3637;51.494;11.958;2023-11-21T03:27:47;7.90;99.90
7192;DHT22;3637;51.494;11.958;2023-11-21T03:30:48;7.60;99.90
7192;DHT22;3637;51.494;11.958;2023-11-21T03:33:50;8.50;99.90
7192;DHT22;3637;51.494;11.958;2023-11-21T03:36:57;7.30;99.90
7192;DHT22;3637;51.494;11.958;2023-11-21T03:40:00;7.40;99.90
7192;DHT22;3637;51.494;11.958;2023-11-21T03:43:04;7.60;99.90
7192;DHT22;3637;51.494;11.958;2023-11-21T03:46:06;7.60;99.90
7192;DHT22;3637;51.494;11.958;2023-11-21T03:49:08;7.80;99.90
7192;DHT22;3637;51.494;11.958;2023-11-21T03:52:11;7.40;99.90
7192;DHT22;3637;51.494;11.958;2023-11-21T03:55:14;7.60;99.90
7192;DHT22;3637;51.494;11.958;2023-11-21T03:58:17;7.70;99.90
7192;DHT22;3637;51.494;11.958;2023-11-21T04:01:20;8.30;99.90
7192;DHT22;3637;51.494;11.958;2023-11-21T04:04:23;7.70;99.90
7192;DHT22;3637;51.494;11.958;2023-11-21T04:07:25;7.90;99.90
7192;DHT22;3637;51.494;11.958;2023-11-21T04:10:28;7.80;99.90
7192;DHT22;3637;51.494;11.958;2023-11-21T04:13:30;7.80;99.90
7192;DHT22;3637;51.494;11.958;2023-11-21T04:16:32;7.80;99.90
7192;DHT22;3637;51.494;11.958;2023-11-21T04:19:34;7.50;99.90
7192;DHT22;3637;51.494;11.958;2023-11-21T04:22:37;7.80;99.90
7192;DHT22;3637;51.494;11.958;2023-11-21T04:25:43;7.80;99.90
7192;DHT22;3637;51.494;11.958;2023-11-21T04:28:44;7.90;99.90
7192;DHT22;3637;51.494;11.958;2023-11-21T04:31:47;7.90;99.90
7192;DHT22;3637;51.494;11.958;2023-11-21T04:34:49;7.90;99.90
7192;DHT22;3637;51.494;11.958;2023-11-21T04:37:51;8.00;99.90
7192;DHT22;3637;51.494;11.958;2023-11-21T04:40:54;8.30;99.90
7192;DHT22;3637;51.494;11.958;2023-11-21T04:43:56;8.00;99.90
7192;DHT22;3637;51.494;11.958;2023-11-21T04:46:59;8.10;99.90
7192;DHT22;3637;51.494;11.958;2023-11-21T04:50:01;8.10;99.90
7192;DHT22;3637;51.494;11.958;2023-11-21T04:53:03;8.50;99.90
7192;DHT22;3637;51.494;11.958;2023-11-21T04:56:07;8.20;99.90
7192;DHT22;3637;51.494;11.958;2023-11-21T04:59:09;7.90;99.90
7192;DHT22;3637;51.494;11.958;2023-11-21T05:02:11;8.00;99.90
7192;DHT22;3637;51.494;11.958;2023-11-21T05:05:14;8.00;99.90
7192;DHT22;3637;51.494;11.958;2023-11-21T05:08:16;8.00;99.90
7192;DHT22;3637;51.494;11.958;2023-11-21T05:11:25;8.40;99.90
7192;DHT22;3637;51.494;11.958;2023-11-21T05:14:27;7.90;99.90
7192;DHT22;3637;51.494;11.958;2023-11-21T05:17:28;8.20;99.90
7192;DHT22;3637;51.494;11.958;2023-11-21T05:20:30;8.00;99.90
7192;DHT22;3637;51.494;11.958;2023-11-21T05:23:33;7.80;99.90
7192;DHT22;3637;51.494;11.958;2023-11-21T05:26:36;8.10;99.90
7192;DHT22;3637;51.494;11.958;2023-11-21T05:29:39;7.90;99.90
7192;DHT22;3637;51.494;11.958;2023-11-21T05:32:41;7.90;99.90
7192;DHT22;3637;51.494;11.958;2023-11-21T05:35:43;8.80;99.90
7192;DHT22;3637;51.494;11.958;2023-11-21T05:38:45;8.00;99.90
7192;DHT22;3637;51.494;11.958;2023-11-21T05:41:49;7.80;99.90
7192;DHT22;3637;51.494;11.958;2023-11-21T05:44:50;7.80;99.90
7192;DHT22;3637;51.494;11.958;2023-11-21T05:47:52;7.80;99.90
7192;DHT22;3637;51.494;11.958;2023-11-21T05:50:54;8.30;99.90
7192;DHT22;3637;51.494;11.958;2023-11-21T05:53:56;8.00;99.90
7192;DHT22;3637;51.494;11.958;2023-11-21T05:56:59;7.90;99.90
7192;DHT22;3637;51.494;11.958;2023-11-21T06:00:01;7.90;99.90
7192;DHT22;3637;51.494;11.958;2023-11-21T06:03:10;7.80;99.90
7192;DHT22;3637;51.494;11.958;2023-11-21T06:06:12;7.80;99.90
7192;DHT22;3637;51.494;11.958;2023-11-21T06:09:14;7.70;99.90
7192;DHT22;3637;51.494;11.958;2023-11-21T06:12:18;7.60;99.90
7192;DHT22;3637;51.494;11.958;2023-11-21T06:15:21;7.50;99.90
7192;DHT22;3637;51.494;11.958;2023-11-21T06:18:23;7.50;99.90
7192;DHT22;3637;51.494;11.958;2023-11-21T06:21:25;7.50;99.90
7192;DHT22;3637;51.494;11.958;2023-11-21T06:24:27;7.40;99.90
7192;DHT22;3637;51.494;11.958;2023-11-21T06:27:31;7.40;99.90
7192;DHT22;3637;51.494;11.958;2023-11-21T06:30:33;7.40;99.90
7192;DHT22;3637;51.494;11.958;2023-11-21T06:33:34;7.50;99.90
7192;DHT22;3637;51.494;11.958;2023-11-21T06:36:36;7.40;99.90
7192;DHT22;3637;51.494;11.958;2023-11-21T06:39:38;7.50;99.90
7192;DHT22;3637;51.494;11.958;2023-11-21T06:42:41;7.60;99.90
7192;DHT22;3637;51.494;11.958;2023-11-21T06:45:44;7.80;99.90
7192;DHT22;3637;51.494;11.958;2023-11-21T06:48:46;7.50;99.90
7192;DHT22;3637;51.494;11.958;2023-11-21T06:51:50;7.60;99.90
7192;DHT22;3637;51.494;11.958;2023-11-21T06:54:51;7.60;99.90
7192;DHT22;3637;51.494;11.958;2023-11-21T06:57:55;8.00;99.90
7192;DHT22;3637;51.494;11.958;2023-11-21T07:00:58;7.50;99.90
7192;DHT22;3637;51.494;11.958;2023-11-21T07:04:00;7.60;99.90
7192;DHT22;3637;51.494;11.958;2023-11-21T07:07:02;7.70;99.90
7192;DHT22;3637;51.494;11.958;2023-11-21T07:10:05;7.70;99.90
7192;DHT22;3637;51.494;11.958;2023-11-21T07:13:08;7.80;99.90
7192;DHT22;3637;51.494;11.958;2023-11-21T07:16:12;9.20;99.90
7192;DHT22;3637;51.494;11.958;2023-11-21T07:19:15;8.20;99.90
7192;DHT22;3637;51.494;11.958;2023-11-21T07:22:17;7.90;99.90
7192;DHT22;3637;51.494;11.958;2023-11-21T07:25:21;8.00;99.90
7192;DHT22;3637;51.494;11.958;2023-11-21T07:28:25;8.00;99.90
7192;DHT22;3637;51.494;11.958;2023-11-21T07:31:27;8.80;99.90
7192;DHT22;3637;51.494;11.958;2023-11-21T07:34:29;8.00;99.90
7192;DHT22;3637;51.494;11.958;2023-11-21T07:37:31;8.20;99.90
7192;DHT22;3637;51.494;11.958;2023-11-21T07:40:33;8.40;99.90
7192;DHT22;3637;51.494;11.958;2023-11-21T07:43:36;8.40;99.90
7192;DHT22;3637;51.494;11.958;2023-11-21T07:46:38;7.90;99.90
7192;DHT22;3637;51.494;11.958;2023-11-21T07:49:41;7.90;99.90
7192;DHT22;3637;51.494;11.958;2023-11-21T07:52:44;8.10;99.90
7192;DHT22;3637;51.494;11.958;2023-11-21T07:55:46;8.00;99.90
7192;DHT22;3637;51.494;11.958;2023-11-21T07:58:49;8.90;99.90
7192;DHT22;3637;51.494;11.958;2023-11-21T08:01:51;8.10;99.90
7192;DHT22;3637;51.494;11.958;2023-11-21T08:04:53;8.10;99.90
7192;DHT22;3637;51.494;11.958;2023-11-21T08:07:57;8.20;99.90
7192;DHT22;3637;51.494;11.958;2023-11-21T08:10:59;9.10;99.90
7192;DHT22;3637;51.494;11.958;2023-11-21T08:14:03;8.10;99.90
7192;DHT22;3637;51.494;11.958;2023-11-21T08:17:05;8.00;99.90
7192;DHT22;3637;51.494;11.958;2023-11-21T08:20:08;8.60;99.90
7192;DHT22;3637;51.494;11.958;2023-11-21T08:23:11;8.00;99.90
7192;DHT22;3637;51.494;11.958;2023-11-21T08:26:16;8.20;99.90
7192;DHT22;3637;51.494;11.958;2023-11-21T08:29:20;7.90;99.90
7192;DHT22;3637;51.494;11.958;2023-11-21T08:32:22;8.00;99.90
7192;DHT22;3637;51.494;11.958;2023-11-21T08:35:24;8.40;99.90
7192;DHT22;3637;51.494;11.958;2023-11-21T08:38:26;8.60;99.90
7192;DHT22;3637;51.494;11.958;2023-11-21T08:41:29;9.10;99.90
7192;DHT22;3637;51.494;11.958;2023-11-21T08:44:32;8.40;99.90
7192;DHT22;3637;51.494;11.958;2023-11-21T08:47:34;8.40;99.90
7192;DHT22;3637;51.494;11.958;2023-11-21T08:50:37;8.30;99.90
7192;DHT22;3637;51.494;11.958;2023-11-21T08:53:38;7.90;99.90
7192;DHT22;3637;51.494;11.958;2023-11-21T08:56:40;8.10;99.90
7192;DHT22;3637;51.494;11.958;2023-11-21T08:59:44;8.10;99.90
7192;DHT22;3637;51.494;11.958;2023-11-21T09:02:45;8.70;99.90
7192;DHT22;3637;51.494;11.958;2023-11-21T09:05:47;8.50;99.90
7192;DHT22;3637;51.494;11.958;2023-11-21T09:08:49;7.90;99.90
7192;DHT22;3637;51.494;11.958;2023-11-21T09:11:51;7.90;99.90
7192;DHT22;3637;51.494;11.958;2023-11-21T09:14:55;7.70;99.90
7192;DHT22;3637;51.494;11.958;2023-11-21T09:17:56;8.00;99.90
7192;DHT22;3637;51.494;11.958;2023-11-21T09:20:58;7.90;99.90
7192;DHT22;3637;51.494;11.958;2023-11-21T09:24:00;7.90;99.90
7192;DHT22;3637;51.494;11.958;2023-11-21T09:27:03;7.80;99.90
7192;DHT22;3637;51.494;11.958;2023-11-21T09:30:08;7.80;99.90
7192;DHT22;3637;51.494;11.958;2023-11-21T09:33:11;7.80;99.90
7192;DHT22;3637;51.494;11.958;2023-11-21T09:36:12;7.90;99.90
7192;DHT22;3637;51.494;11.958;2023-11-21T09:39:15;7.50;99.90
7192;DHT22;3637;51.494;11.958;2023-11-21T09:42:23;8.30;99.90
7192;DHT22;3637;51.494;11.958;2023-11-21T09:45:29;7.80;99.90
7192;DHT22;3637;51.494;11.958;2023-11-21T09:48:36;7.50;99.90
7192;DHT22;3637;51.494;11.958;2023-11-21T09:51:39;7.60;99.90
7192;DHT22;3637;51.494;11.958;2023-11-21T09:54:44;7.60;99.90
7192;DHT22;3637;51.494;11.958;2023-11-21T09:57:46;7.60;99.90
7192;DHT22;3637;51.494;11.958;2023-11-21T10:00:53;8.60;99.90
7192;DHT22;3637;51.494;11.958;2023-11-21T10:03:57;7.30;99.90
7192;DHT22;3637;51.494;11.958;2023-11-21T10:06:59;7.70;99.90
7192;DHT22;3637;51.494;11.958;2023-11-21T10:10:02;7.30;99.90
7192;DHT22;3637;51.494;11.958;2023-11-21T10:13:05;7.60;99.90
7192;DHT22;3637;51.494;11.958;2023-11-21T10:16:10;7.70;99.90
7192;DHT22;3637;51.494;11.958;2023-11-21T10:19:14;8.30;99.90
7192;DHT22;3637;51.494;11.958;2023-11-21T10:22:17;8.00;99.90
7192;DHT22;3637;51.494;11.958;2023-11-21T10:25:20;7.90;99.90
7192;DHT22;3637;51.494;11.958;2023-11-21T10:28:21;7.60;99.90
7192;DHT22;3637;51.494;11.958;2023-11-21T10:31:27;7.60;99.90
7192;DHT22;3637;51.494;11.958;2023-11-21T10:34:28;7.70;99.90
7192;DHT22;3637;51.494;11.958;2023-11-21T10:37:30;7.80;99.90
7192;DHT22;3637;51.494;11.958;2023-11-21T10:40:32;8.20;99.90
7192;DHT22;3637;51.494;11.958;2023-11-21T10:43:34;8.10;99.90
7192;DHT22;3637;51.494;11.958;2023-11-21T10:46:38;7.80;99.90
7192;DHT22;3637;51.494;11.958;2023-11-21T10:49:40;7.90;99.90
7192;DHT22;3637;51.494;11.958;2023-11-21T10:52:45;8.00;99.90
7192;DHT22;3637;51.494;11.958;2023-11-21T10:55:47;8.00;99.90
7192;DHT22;3637;51.494;11.958;2023-11-21T10:58:50;8.10;99.90
7192;DHT22;3637;51.494;11.958;2023-11-21T11:01:54;8.10;99.90
7192;DHT22;3637;51.494;11.958;2023-11-21T11:04:59;8.30;99.90
7192;DHT22;3637;51.494;11.958;2023-11-21T11:08:04;8.70;99.90
7192;DHT22;3637;51.494;11.958;2023-11-21T11:11:07;8.00;99.90
7192;DHT22;3637;51.494;11.958;2023-11-21T11:14:11;8.00;99.90
7192;DHT22;3637;51.494;11.958;2023-11-21T11:17:15;8.40;99.90
7192;DHT22;3637;51.494;11.958;2023-11-21T11:20:17;7.90;99.90
7192;DHT22;3637;51.494;11.958;2023-11-21T11:23:46;8.10;99.90
7192;DHT22;3637;51.494;11.958;2023-11-21T11:26:57;8.10;99.90
7192;DHT22;3637;51.494;11.958;2023-11-21T11:30:11;8.00;99.90
7192;DHT22;3637;51.494;11.958;2023-11-21T11:33:28;7.80;99.90
7192;DHT22;3637;51.494;11.958;2023-11-21T11:36:37;7.80;99.90
7192;DHT22;3637;51.494;11.958;2023-11-21T11:39:42;7.80;99.90
7192;DHT22;3637;51.494;11.958;2023-11-21T11:43:00;8.50;99.90
7192;DHT22;3637;51.494;11.958;2023-11-21T11:46:03;7.80;99.90
7192;DHT22;3637;51.494;11.958;2023-11-21T11:49:06;8.00;99.90
7192;DHT22;3637;51.494;11.958;2023-11-21T11:52:36;8.00;99.90
7192;DHT22;3637;51.494;11.958;2023-11-21T11:55:39;7.40;99.90
7192;DHT22;3637;51.494;11.958;2023-11-21T11:58:41;7.50;99.90
7192;DHT22;3637;51.494;11.958;2023-11-21T12:01:46;7.70;99.90
7192;DHT22;3637;51.494;11.958;2023-11-21T12:04:55;7.20;99.90
7192;DHT22;3637;51.494;11.958;2023-11-21T12:07:59;7.00;99.90
7192;DHT22;3637;51.494;11.958;2023-11-21T12:11:01;6.80;99.90
7192;DHT22;3637;51.494;11.958;2023-11-21T12:14:03;6.80;99.90
7192;DHT22;3637;51.494;11.958;2023-11-21T12:17:07;6.70;99.90
7192;DHT22;3637;51.494;11.958;2023-11-21T12:20:12;7.00;99.90
7192;DHT22;3637;51.494;11.958;2023-11-21T12:23:17;6.80;99.90
7192;DHT22;3637;51.494;11.958;2023-11-21T12:26:19;8.00;99.90
7192;DHT22;3637;51.494;11.958;2023-11-21T12:29:23;6.80;99.90
7192;DHT22;3637;51.494;11.958;2023-11-21T12:32:25;7.40;99.90
7192;DHT22;3637;51.494;11.958;2023-11-21T12:35:30;6.70;99.90
7192;DHT22;3637;51.494;11.958;2023-11-21T12:38:34;7.00;99.90
7192;DHT22;3637;51.494;11.958;2023-11-21T12:41:36;7.00;99.90
7192;DHT22;3637;51.494;11.958;2023-11-21T12:44:39;6.90;99.90
7192;DHT22;3637;51.494;11.958;2023-11-21T12:47:43;6.70;99.90
7192;DHT22;3637;51.494;11.958;2023-11-21T12:50:47;6.70;99.90
7192;DHT22;3637;51.494;11.958;2023-11-21T12:53:53;6.80;99.90
7192;DHT22;3637;51.494;11.958;2023-11-21T12:56:59;6.70;99.90
7192;DHT22;3637;51.494;11.958;2023-11-21T13:00:02;6.80;99.90
7192;DHT22;3637;51.494;11.958;2023-11-21T13:03:12;6.70;99.90
7192;DHT22;3637;51.494;11.958;2023-11-21T13:06:19;6.60;99.90
7192;DHT22;3637;51.494;11.958;2023-11-21T13:09:25;6.70;99.90
7192;DHT22;3637;51.494;11.958;2023-11-21T13:12:27;6.50;99.90
7192;DHT22;3637;51.494;11.958;2023-11-21T13:15:29;6.60;99.90
7192;DHT22;3637;51.494;11.958;2023-11-21T13:18:32;6.50;99.90
7192;DHT22;3637;51.494;11.958;2023-11-21T13:21:35;6.60;99.90
7192;DHT22;3637;51.494;11.958;2023-11-21T13:24:37;6.70;99.90
7192;DHT22;3637;51.494;11.958;2023-11-21T13:27:39;6.60;99.90
7192;DHT22;3637;51.494;11.958;2023-11-21T13:30:41;7.80;99.90
7192;DHT22;3637;51.494;11.958;2023-11-21T13:33:45;6.80;99.90
7192;DHT22;3637;51.494;11.958;2023-11-21T13:36:52;6.50;99.90
7192;DHT22;3637;51.494;11.958;2023-11-21T13:39:59;6.50;99.90
7192;DHT22;3637;51.494;11.958;2023-11-21T13:43:04;6.40;99.90
7192;DHT22;3637;51.494;11.958;2023-11-21T13:46:06;6.30;99.90
7192;DHT22;3637;51.494;11.958;2023-11-21T13:49:13;6.50;99.90
7192;DHT22;3637;51.494;11.958;2023-11-21T13:52:18;6.30;99.90
7192;DHT22;3637;51.494;11.958;2023-11-21T13:55:23;6.60;99.90
7192;DHT22;3637;51.494;11.958;2023-11-21T13:58:25;6.20;99.90
7192;DHT22;3637;51.494;11.958;2023-11-21T14:01:42;6.20;99.90
7192;DHT22;3637;51.494;11.958;2023-11-21T14:04:55;6.20;99.90
7192;DHT22;3637;51.494;11.958;2023-11-21T14:08:01;6.30;99.90
7192;DHT22;3637;51.494;11.958;2023-11-21T14:11:05;6.20;99.90
7192;DHT22;3637;51.494;11.958;2023-11-21T14:14:07;6.10;99.90
7192;DHT22;3637;51.494;11.958;2023-11-21T14:17:10;6.10;99.90
7192;DHT22;3637;51.494;11.958;2023-11-21T14:20:12;7.20;99.90
7192;DHT22;3637;51.494;11.958;2023-11-21T14:23:17;6.10;99.90
7192;DHT22;3637;51.494;11.958;2023-11-21T14:26:21;6.30;99.90
7192;DHT22;3637;51.494;11.958;2023-11-21T14:29:25;6.10;99.90
7192;DHT22;3637;51.494;11.958;2023-11-21T14:32:28;6.00;99.90
7192;DHT22;3637;51.494;11.958;2023-11-21T14:35:29;6.00;99.90
7192;DHT22;3637;51.494;11.958;2023-11-21T14:38:34;6.00;99.90
7192;DHT22;3637;51.494;11.958;2023-11-21T14:41:36;6.00;99.90
7192;DHT22;3637;51.494;11.958;2023-11-21T14:44:39;6.10;99.90
7192;DHT22;3637;51.494;11.958;2023-11-21T14:47:42;6.20;99.90
7192;DHT22;3637;51.494;11.958;2023-11-21T14:50:49;6.20;99.90
7192;DHT22;3637;51.494;11.958;2023-11-21T14:54:14;6.10;99.90
7192;DHT22;3637;51.494;11.958;2023-11-21T14:57:23;6.00;99.90
7192;DHT22;3637;51.494;11.958;2023-11-21T15:00:27;6.00;99.90
7192;DHT22;3637;51.494;11.958;2023-11-21T15:03:45;6.10;99.90
7192;DHT22;3637;51.494;11.958;2023-11-21T15:06:50;6.10;99.90
7192;DHT22;3637;51.494;11.958;2023-11-21T15:09:55;6.10;99.90
7192;DHT22;3637;51.494;11.958;2023-11-21T15:12:57;6.10;99.90
7192;DHT22;3637;51.494;11.958;2023-11-21T15:15:59;6.10;99.90
7192;DHT22;3637;51.494;11.958;2023-11-21T15:19:08;6.10;99.90
7192;DHT22;3637;51.494;11.958;2023-11-21T15:22:10;6.00;99.90
7192;DHT22;3637;51.494;11.958;2023-11-21T15:25:17;5.90;99.90
7192;DHT22;3637;51.494;11.958;2023-11-21T15:28:19;5.80;99.90
7192;DHT22;3637;51.494;11.958;2023-11-21T15:31:20;5.70;99.90
7192;DHT22;3637;51.494;11.958;2023-11-21T15:34:25;5.70;99.90
7192;DHT22;3637;51.494;11.958;2023-11-21T15:37:29;5.70;99.90
7192;DHT22;3637;51.494;11.958;2023-11-21T15:40:32;5.80;99.90
7192;DHT22;3637;51.494;11.958;2023-11-21T15:43:34;6.10;99.90
7192;DHT22;3637;51.494;11.958;2023-11-21T15:46:36;5.80;99.90
7192;DHT22;3637;51.494;11.958;2023-11-21T15:49:39;5.80;99.90
7192;DHT22;3637;51.494;11.958;2023-11-21T15:52:41;5.80;99.90
7192;DHT22;3637;51.494;11.958;2023-11-21T15:55:45;5.70;99.90
7192;DHT22;3637;51.494;11.958;2023-11-21T15:58:48;5.70;99.90
7192;DHT22;3637;51.494;11.958;2023-11-21T16:01:49;5.70;99.90
7192;DHT22;3637;51.494;11.958;2023-11-21T16:04:51;5.60;99.90
7192;DHT22;3637;51.494;11.958;2023-11-21T16:07:53;5.70;99.90
7192;DHT22;3637;51.494;11.958;2023-11-21T16:10:56;5.70;99.90
7192;DHT22;3637;51.494;11.958;2023-11-21T16:14:00;5.70;99.90
7192;DHT22;3637;51.494;11.958;2023-11-21T16:17:03;5.70;99.90
7192;DHT22;3637;51.494;11.958;2023-11-21T16:20:07;5.70;99.90
7192;DHT22;3637;51.494;11.958;2023-11-21T16:23:11;5.70;99.90
7192;DHT22;3637;51.494;11.958;2023-11-21T16:26:14;5.60;99.90
7192;DHT22;3637;51.494;11.958;2023-11-21T16:29:18;5.60;99.90
7192;DHT22;3637;51.494;11.958;2023-11-21T16:32:20;5.70;99.90
7192;DHT22;3637;51.494;11.958;2023-11-21T16:35:22;5.70;99.90
7192;DHT22;3637;51.494;11.958;2023-11-21T16:38:23;6.00;99.90
7192;DHT22;3637;51.494;11.958;2023-11-21T16:41:27;5.70;99.90
7192;DHT22;3637;51.494;11.958;2023-11-21T16:44:29;5.70;99.90
7192;DHT22;3637;51.494;11.958;2023-11-21T16:47:31;5.50;99.90
7192;DHT22;3637;51.494;11.958;2023-11-21T16:50:34;5.90;99.90
7192;DHT22;3637;51.494;11.958;2023-11-21T16:53:35;5.70;99.90
7192;DHT22;3637;51.494;11.958;2023-11-21T16:56:41;5.50;99.90
7192;DHT22;3637;51.494;11.958;2023-11-21T16:59:44;5.40;99.90
7192;DHT22;3637;51.494;11.958;2023-11-21T17:02:50;5.50;99.90
7192;DHT22;3637;51.494;11.958;2023-11-21T17:05:52;5.50;99.90
7192;DHT22;3637;51.494;11.958;2023-11-21T17:08:54;5.50;99.90
7192;DHT22;3637;51.494;11.958;2023-11-21T17:11:58;5.40;99.90
7192;DHT22;3637;51.494;11.958;2023-11-21T17:15:01;5.10;99.90
7192;DHT22;3637;51.494;11.958;2023-11-21T17:18:03;5.00;99.90
7192;DHT22;3637;51.494;11.958;2023-11-21T17:21:06;5.10;99.90
7192;DHT22;3637;51.494;11.958;2023-11-21T17:24:09;5.10;99.90
7192;DHT22;3637;51.494;11.958;2023-11-21T17:27:12;5.00;99.90
7192;DHT22;3637;51.494;11.958;2023-11-21T17:30:14;5.00;99.90
7192;DHT22;3637;51.494;11.958;2023-11-21T17:33:17;5.00;99.90
7192;DHT22;3637;51.494;11.958;2023-11-21T17:36:19;5.00;99.90
7192;DHT22;3637;51.494;11.958;2023-11-21T17:39:21;5.00;99.90
7192;DHT22;3637;51.494;11.958;2023-11-21T17:42:25;5.00;99.90
7192;DHT22;3637;51.494;11.958;2023-11-21T17:45:29;5.00;99.90
7192;DHT22;3637;51.494;11.958;2023-11-21T17:48:31;5.00;99.90
7192;DHT22;3637;51.494;11.958;2023-11-21T17:51:37;4.90;99.90
7192;DHT22;3637;51.494;11.958;2023-11-21T17:54:39;5.00;99.90
7192;DHT22;3637;51.494;11.958;2023-11-21T17:57:43;5.00;99.90
7192;DHT22;3637;51.494;11.958;2023-11-21T18:00:46;5.00;99.90
7192;DHT22;3637;51.494;11.958;2023-11-21T18:03:48;4.90;99.90
7192;DHT22;3637;51.494;11.958;2023-11-21T18:06:50;4.80;99.90
7192;DHT22;3637;51.494;11.958;2023-11-21T18:09:54;4.80;99.90
7192;DHT22;3637;51.494;11.958;2023-11-21T18:12:57;4.80;99.90
7192;DHT22;3637;51.494;11.958;2023-11-21T18:15:59;4.80;99.90
7192;DHT22;3637;51.494;11.958;2023-11-21T18:19:01;4.70;99.90
7192;DHT22;3637;51.494;11.958;2023-11-21T18:22:03;4.80;99.90
7192;DHT22;3637;51.494;11.958;2023-11-21T18:25:06;4.70;99.90
7192;DHT22;3637;51.494;11.958;2023-11-21T18:28:09;4.70;99.90
7192;DHT22;3637;51.494;11.958;2023-11-21T18:31:11;4.80;99.90
7192;DHT22;3637;51.494;11.958;2023-11-21T18:34:15;4.70;99.90
7192;DHT22;3637;51.494;11.958;2023-11-21T18:37:18;4.70;99.90
7192;DHT22;3637;51.494;11.958;2023-11-21T18:40:20;4.70;99.90
7192;DHT22;3637;51.494;11.958;2023-11-21T18:43:23;4.70;99.90
7192;DHT22;3637;51.494;11.958;2023-11-21T18:46:25;4.80;99.90
7192;DHT22;3637;51.494;11.958;2023-11-21T18:49:27;4.70;99.90
7192;DHT22;3637;51.494;11.958;2023-11-21T18:52:29;4.70;99.90
7192;DHT22;3637;51.494;11.958;2023-11-21T18:55:33;4.70;99.90
7192;DHT22;3637;51.494;11.958;2023-11-21T18:58:39;4.80;99.90
7192;DHT22;3637;51.494;11.958;2023-11-21T19:01:41;4.70;99.90
7192;DHT22;3637;51.494;11.958;2023-11-21T19:04:44;4.70;99.90
7192;DHT22;3637;51.494;11.958;2023-11-21T19:07:46;4.80;99.90
7192;DHT22;3637;51.494;11.958;2023-11-21T19:10:51;4.70;99.90
7192;DHT22;3637;51.494;11.958;2023-11-21T19:13:54;4.60;99.90
7192;DHT22;3637;51.494;11.958;2023-11-21T19:16:56;4.60;99.90
7192;DHT22;3637;51.494;11.958;2023-11-21T19:20:01;4.60;99.90
7192;DHT22;3637;51.494;11.958;2023-11-21T19:23:04;4.70;99.90
7192;DHT22;3637;51.494;11.958;2023-11-21T19:26:07;4.60;99.90
7192;DHT22;3637;51.494;11.958;2023-11-21T19:29:13;4.60;99.90
7192;DHT22;3637;51.494;11.958;2023-11-21T19:32:14;4.60;99.90
7192;DHT22;3637;51.494;11.958;2023-11-21T19:35:17;4.50;99.90
7192;DHT22;3637;51.494;11.958;2023-11-21T19:38:20;5.60;99.90
7192;DHT22;3637;51.494;11.958;2023-11-21T19:41:22;4.70;99.90
7192;DHT22;3637;51.494;11.958;2023-11-21T19:44:26;5.10;99.90
7192;DHT22;3637;51.494;11.958;2023-11-21T19:47:29;4.60;99.90
7192;DHT22;3637;51.494;11.958;2023-11-21T19:50:34;4.50;99.90
7192;DHT22;3637;51.494;11.958;2023-11-21T19:53:35;5.00;99.90
7192;DHT22;3637;51.494;11.958;2023-11-21T19:56:38;4.50;99.90